Time;durP1;ratioP1;P1;durP2;ratioP2;P2;SDS_P1;SDS_P2;PMS_P1;PMS_P2;Temp;Humidity;BMP_temperature;BMP_pressure;BME280_temperature;BME280_humidity;BME280_pressure;Samples;Min_cycle;Max_cycle;Signal;HPM_P1;HPM_P2
2023/05/22 00:01:55;;;;;;;18.58;14.52;;;14.70;99.90;;;;;;6255526;28;20503;-83
2023/05/22 00:04:57;;;;;;;19.63;14.30;;;14.70;99.90;;;;;;6249108;28;20053;-83
2023/05/22 00:08:00;;;;;;;17.33;15.38;;;14.70;99.90;;;;;;6243465;28;20045;-82
2023/05/22 00:11:02;;;;;;;16.63;14.93;;;14.70;99.90;;;;;;6260468;28;20041;-81
2023/05/22 00:14:04;;;;;;;15.32;13.77;;;14.60;99.90;;;;;;6257076;28;20037;-82
2023/05/22 00:17:06;;;;;;;18.17;15.63;;;14.60;99.90;;;;;;6272674;28;20045;-82
2023/05/22 00:20:09;;;;;;;17.77;16.00;;;14.60;99.90;;;;;;6259870;28;20037;-82
2023/05/22 00:23:13;;;;;;;15.43;13.77;;;14.60;99.90;;;;;;6273828;28;20048;-84
2023/05/22 00:26:15;;;;;;;17.88;14.43;;;14.60;99.90;;;;;;6264082;28;20057;-83
2023/05/22 00:29:17;;;;;;;17.17;12.93;;;14.60;99.90;;;;;;6272839;28;20075;-83
2023/05/22 00:32:19;;;;;;;17.35;15.73;;;14.60;99.90;;;;;;6273718;28;20044;-83
2023/05/22 00:35:20;;;;;;;16.42;14.73;;;14.60;99.90;;;;;;6273632;28;20068;-84
2023/05/22 00:38:32;;;;;;;16.42;14.70;;;14.60;99.90;;;;;;6281370;28;20045;-80
2023/05/22 00:41:33;;;;;;;17.02;14.60;;;14.50;99.90;;;;;;6277198;28;20049;-82
2023/05/22 00:44:35;;;;;;;17.08;15.27;;;14.50;99.90;;;;;;6268988;28;20049;-82
2023/05/22 00:47:37;;;;;;;17.80;14.88;;;14.40;99.90;;;;;;6254239;28;20052;-81
2023/05/22 00:50:39;;;;;;;16.08;14.57;;;14.40;99.90;;;;;;6239277;28;20053;-79
2023/05/22 00:53:43;;;;;;;19.65;15.20;;;14.40;99.90;;;;;;6249026;28;20515;-82
2023/05/22 00:56:45;;;;;;;18.00;14.48;;;14.40;99.90;;;;;;6251286;28;20049;-82
2023/05/22 00:59:48;;;;;;;18.17;14.75;;;14.30;99.90;;;;;;6250423;28;20099;-79
2023/05/22 01:02:50;;;;;;;16.23;14.55;;;14.20;99.90;;;;;;6251820;28;20133;-81
2023/05/22 01:05:52;;;;;;;17.77;14.82;;;14.20;99.90;;;;;;6251292;28;20046;-81
2023/05/22 01:08:55;;;;;;;16.25;14.70;;;14.20;99.90;;;;;;6250754;28;20099;-82
2023/05/22 01:12:05;;;;;;;15.88;14.23;;;14.20;99.90;;;;;;6247455;28;20050;-82
2023/05/22 01:15:16;;;;;;;16.38;14.68;;;14.20;99.90;;;;;;6227090;28;20652;-81
2023/05/22 01:18:28;;;;;;;21.15;15.85;;;14.20;99.90;;;;;;6225591;28;20057;-80
2023/05/22 01:21:36;;;;;;;14.55;13.15;;;14.10;99.90;;;;;;6225658;28;20054;-83
2023/05/22 01:25:00;;;;;;;17.17;14.20;;;14.10;99.90;;;;;;6225529;28;20061;-82
2023/05/22 01:28:10;;;;;;;16.35;14.02;;;14.10;99.90;;;;;;6230041;28;20694;-82
2023/05/22 01:31:16;;;;;;;16.15;14.50;;;14.00;99.90;;;;;;6230507;28;20428;-80
2023/05/22 01:34:20;;;;;;;16.00;14.38;;;14.00;99.90;;;;;;6229741;28;20536;-82
2023/05/22 01:37:24;;;;;;;18.10;16.30;;;14.10;99.90;;;;;;6228868;28;20053;-82
2023/05/22 01:40:26;;;;;;;19.50;16.08;;;14.00;99.90;;;;;;6229238;28;20127;-80
2023/05/22 01:43:27;;;;;;;15.80;13.73;;;14.10;99.90;;;;;;6229110;28;20050;-81
2023/05/22 01:46:31;;;;;;;17.77;15.35;;;14.00;99.90;;;;;;6229569;28;20057;-81
2023/05/22 01:49:34;;;;;;;16.90;15.10;;;14.00;99.90;;;;;;6229701;28;20083;-80
2023/05/22 01:52:41;;;;;;;16.23;14.60;;;14.00;99.90;;;;;;6236924;28;20042;-82
2023/05/22 01:55:49;;;;;;;19.30;16.90;;;13.90;99.90;;;;;;6231139;28;20401;-81
2023/05/22 01:59:01;;;;;;;18.40;15.25;;;13.80;99.90;;;;;;6232430;28;20053;-83
2023/05/22 02:02:06;;;;;;;18.27;16.38;;;13.80;99.90;;;;;;6229162;28;20046;-82
2023/05/22 02:05:11;;;;;;;19.15;15.27;;;13.80;99.90;;;;;;6229274;28;20045;-80
2023/05/22 02:08:15;;;;;;;17.15;14.55;;;13.80;99.90;;;;;;6228735;28;20443;-82
2023/05/22 02:11:17;;;;;;;15.93;14.32;;;13.80;99.90;;;;;;6229640;28;20056;-81
2023/05/22 02:14:21;;;;;;;19.25;16.55;;;13.70;99.90;;;;;;6228776;28;20053;-79
2023/05/22 02:17:24;;;;;;;21.27;14.75;;;13.70;99.90;;;;;;6228129;28;20480;-80
2023/05/22 02:20:26;;;;;;;16.65;13.85;;;13.70;99.90;;;;;;6227692;28;20505;-79
2023/05/22 02:23:28;;;;;;;15.60;13.93;;;13.80;99.90;;;;;;6227100;28;20046;-81
2023/05/22 02:26:30;;;;;;;17.55;15.05;;;13.80;99.90;;;;;;6226909;28;20050;-81
2023/05/22 02:29:31;;;;;;;15.93;14.25;;;13.80;99.90;;;;;;6226141;28;20058;-81
2023/05/22 02:32:34;;;;;;;17.42;15.57;;;13.80;99.90;;;;;;6226694;28;20045;-80
2023/05/22 02:35:36;;;;;;;18.38;16.48;;;13.90;99.90;;;;;;6226339;28;20050;-81
2023/05/22 02:38:38;;;;;;;19.13;13.95;;;13.90;99.90;;;;;;6225869;28;20049;-80
2023/05/22 02:41:39;;;;;;;16.02;13.43;;;13.90;99.90;;;;;;6226286;28;20068;-80
2023/05/22 02:44:41;;;;;;;18.88;16.85;;;13.90;99.90;;;;;;6226437;28;20057;-82
2023/05/22 02:47:44;;;;;;;14.40;13.00;;;14.00;99.90;;;;;;6223363;28;20050;-81
2023/05/22 02:50:47;;;;;;;14.95;13.52;;;14.10;99.90;;;;;;6227606;28;20053;-82
2023/05/22 02:53:49;;;;;;;17.60;13.55;;;14.10;99.90;;;;;;6229236;28;20069;-79
2023/05/22 02:56:50;;;;;;;15.07;13.10;;;14.20;99.90;;;;;;6230695;28;20092;-79
2023/05/22 02:59:52;;;;;;;15.05;13.55;;;14.20;99.90;;;;;;6230615;28;20053;-79
2023/05/22 03:02:56;;;;;;;16.15;14.52;;;14.30;99.90;;;;;;6234522;28;20053;-80
2023/05/22 03:05:58;;;;;;;16.40;13.95;;;14.30;99.90;;;;;;6237152;28;20073;-80
2023/05/22 03:09:00;;;;;;;17.38;15.40;;;14.40;99.90;;;;;;6236363;28;20041;-80
2023/05/22 03:12:01;;;;;;;15.35;13.70;;;14.50;99.90;;;;;;6237113;28;20080;-79
2023/05/22 03:15:03;;;;;;;15.90;14.30;;;14.60;99.90;;;;;;6235994;28;20105;-79
2023/05/22 03:18:06;;;;;;;16.00;14.18;;;14.60;99.90;;;;;;6232780;28;20045;-80
2023/05/22 03:21:08;;;;;;;15.35;13.73;;;14.60;99.90;;;;;;6235274;28;20128;-79
2023/05/22 03:24:11;;;;;;;16.23;14.60;;;14.70;99.90;;;;;;6234203;28;20053;-80
2023/05/22 03:27:15;;;;;;;18.92;16.50;;;14.70;99.90;;;;;;6234062;28;20092;-80
2023/05/22 03:30:16;;;;;;;16.10;13.70;;;14.70;99.90;;;;;;6233424;28;20109;-79
2023/05/22 03:33:19;;;;;;;18.10;15.27;;;14.70;99.90;;;;;;6234508;28;20519;-79
2023/05/22 03:36:21;;;;;;;19.25;14.50;;;14.70;99.90;;;;;;6233590;28;20546;-78
2023/05/22 03:39:23;;;;;;;19.33;15.68;;;14.70;99.90;;;;;;6234240;28;20480;-78
2023/05/22 03:42:25;;;;;;;18.38;16.52;;;14.70;99.90;;;;;;6234594;28;20504;-78
2023/05/22 03:45:26;;;;;;;17.23;15.40;;;14.80;99.90;;;;;;6233555;28;20046;-78
2023/05/22 03:48:30;;;;;;;18.40;16.45;;;14.80;99.90;;;;;;6232076;28;20500;-80
2023/05/22 03:51:31;;;;;;;21.38;16.83;;;14.80;99.90;;;;;;6235433;28;20057;-78
2023/05/22 03:54:33;;;;;;;18.60;16.60;;;14.80;99.90;;;;;;6234466;28;20052;-78
2023/05/22 03:57:35;;;;;;;18.67;16.75;;;14.80;99.90;;;;;;6233793;28;20054;-79
2023/05/22 04:00:37;;;;;;;21.73;19.02;;;14.90;99.90;;;;;;6234105;28;20045;-79
2023/05/22 04:03:40;;;;;;;20.90;17.52;;;15.00;99.90;;;;;;6233431;28;20049;-78
2023/05/22 04:06:42;;;;;;;20.88;18.63;;;15.00;99.90;;;;;;6237955;28;20061;-78
2023/05/22 04:09:44;;;;;;;18.90;15.98;;;15.10;99.90;;;;;;6250855;28;20064;-78
2023/05/22 04:12:46;;;;;;;20.20;17.00;;;15.20;99.90;;;;;;6239914;28;20052;-81
2023/05/22 04:15:49;;;;;;;21.13;18.75;;;15.20;99.90;;;;;;6241774;28;20042;-82
2023/05/22 04:18:52;;;;;;;20.83;18.55;;;15.30;99.90;;;;;;6243414;28;20054;-81
2023/05/22 04:21:53;;;;;;;20.80;18.48;;;15.40;99.90;;;;;;6234451;28;20058;-80
2023/05/22 04:24:55;;;;;;;20.17;18.10;;;15.50;99.90;;;;;;6241139;28;20053;-80
2023/05/22 04:27:58;;;;;;;22.75;18.77;;;15.70;99.90;;;;;;6233164;28;20050;-78
2023/05/22 04:31:01;;;;;;;21.02;18.90;;;15.80;99.90;;;;;;6211592;28;20054;-81
2023/05/22 04:34:04;;;;;;;20.52;18.42;;;16.10;99.90;;;;;;6213702;28;20053;-81
2023/05/22 04:37:06;;;;;;;22.60;17.95;;;16.30;99.90;;;;;;6210682;28;20050;-81
2023/05/22 04:40:08;;;;;;;22.65;17.67;;;16.70;99.90;;;;;;6210406;28;20509;-81
2023/05/22 04:43:11;;;;;;;17.35;15.65;;;17.00;99.90;;;;;;6210407;28;20461;-78
2023/05/22 04:46:13;;;;;;;18.75;15.77;;;17.20;99.90;;;;;;6208661;28;20042;-78
2023/05/22 04:49:16;;;;;;;18.38;16.52;;;17.40;99.90;;;;;;6207489;28;20042;-78
2023/05/22 04:52:18;;;;;;;15.80;14.20;;;17.60;99.90;;;;;;6208345;28;20410;-79
2023/05/22 04:55:21;;;;;;;16.27;14.18;;;17.70;99.90;;;;;;6231206;28;20045;-79
2023/05/22 04:58:23;;;;;;;17.38;15.30;;;17.80;99.90;;;;;;6233055;28;20049;-77
2023/05/22 05:01:26;;;;;;;17.00;15.30;;;17.90;99.90;;;;;;6233265;28;20053;-78
2023/05/22 05:04:29;;;;;;;25.83;14.77;;;18.00;99.90;;;;;;6249974;28;20064;-80
2023/05/22 05:07:31;;;;;;;16.65;15.05;;;18.10;99.90;;;;;;6225417;28;20051;-79
2023/05/22 05:10:33;;;;;;;18.33;16.15;;;18.20;99.90;;;;;;6212462;28;20050;-79
2023/05/22 05:13:34;;;;;;;16.45;14.88;;;18.50;99.90;;;;;;6212410;28;20409;-79
2023/05/22 05:16:36;;;;;;;15.23;13.63;;;18.80;99.90;;;;;;6210888;28;20532;-79
2023/05/22 05:19:39;;;;;;;15.25;13.63;;;19.10;99.90;;;;;;6210898;28;20481;-78
2023/05/22 05:22:42;;;;;;;15.90;14.27;;;19.20;99.90;;;;;;6211699;28;20050;-80
2023/05/22 05:25:44;;;;;;;14.65;12.77;;;19.40;99.90;;;;;;6218481;28;20061;-80
2023/05/22 05:28:46;;;;;;;14.85;13.20;;;19.50;99.90;;;;;;6218203;28;20435;-79
2023/05/22 05:31:47;;;;;;;17.48;14.60;;;19.60;99.90;;;;;;6216476;28;20053;-79
2023/05/22 05:34:50;;;;;;;15.40;13.80;;;19.70;99.90;;;;;;6216112;28;20053;-78
2023/05/22 05:37:52;;;;;;;16.73;14.60;;;19.80;99.90;;;;;;6216161;28;20587;-79
2023/05/22 05:40:54;;;;;;;15.27;13.77;;;19.90;99.90;;;;;;6214565;28;20531;-78
2023/05/22 05:43:58;;;;;;;19.50;13.70;;;20.00;99.90;;;;;;6215354;28;20390;-78
2023/05/22 05:47:00;;;;;;;14.52;13.02;;;20.10;99.90;;;;;;6215523;28;20563;-79
2023/05/22 05:50:05;;;;;;;16.70;14.70;;;20.30;99.90;;;;;;6213863;28;20501;-79
2023/05/22 05:53:07;;;;;;;16.05;13.18;;;20.50;99.90;;;;;;6214214;28;20133;-79
2023/05/22 05:56:09;;;;;;;14.82;13.32;;;20.70;99.90;;;;;;6210924;28;20046;-79
2023/05/22 05:59:11;;;;;;;18.00;13.23;;;21.00;99.90;;;;;;6211696;28;20118;-79
2023/05/22 06:02:13;;;;;;;17.00;15.18;;;21.20;99.90;;;;;;6212874;28;20042;-80
2023/05/22 06:05:17;;;;;;;14.55;13.05;;;21.50;99.90;;;;;;6211686;28;20053;-80
2023/05/22 06:08:20;;;;;;;17.52;14.27;;;21.70;99.90;;;;;;6212756;28;20129;-79
2023/05/22 06:11:22;;;;;;;14.65;13.18;;;22.00;99.90;;;;;;6214886;28;20096;-79
2023/05/22 06:14:24;;;;;;;14.52;13.10;;;22.60;99.90;;;;;;6218479;28;20487;-80
2023/05/22 06:17:26;;;;;;;12.63;11.43;;;23.00;99.90;;;;;;6217550;28;20054;-79
2023/05/22 06:20:29;;;;;;;18.00;12.15;;;23.50;99.90;;;;;;6218142;28;20053;-81
2023/05/22 06:23:31;;;;;;;13.60;11.55;;;23.30;99.90;;;;;;6217986;28;20065;-80
2023/05/22 06:26:33;;;;;;;20.42;13.15;;;23.00;99.90;;;;;;6220755;28;20093;-80
2023/05/22 06:29:34;;;;;;;14.18;12.02;;;22.80;99.90;;;;;;6219426;28;20053;-80
2023/05/22 06:32:36;;;;;;;13.57;12.32;;;22.80;99.90;;;;;;6216890;28;20046;-80
2023/05/22 06:35:39;;;;;;;11.95;10.80;;;22.80;99.90;;;;;;6221784;28;20050;-80
2023/05/22 06:38:41;;;;;;;12.25;11.13;;;23.60;99.90;;;;;;6223640;28;20077;-80
2023/05/22 06:41:43;;;;;;;12.70;10.80;;;24.70;99.90;;;;;;6222154;28;20538;-80
2023/05/22 06:44:44;;;;;;;18.52;11.70;;;25.70;99.30;;;;;;6191296;28;20054;-80
2023/05/22 06:47:46;;;;;;;11.65;10.55;;;26.60;97.40;;;;;;6242853;28;20045;-79
2023/05/22 06:50:49;;;;;;;11.52;10.43;;;27.50;96.00;;;;;;6256413;28;20051;-79
2023/05/22 06:53:51;;;;;;;11.10;10.07;;;28.10;93.80;;;;;;6241339;28;20050;-80
2023/05/22 06:56:53;;;;;;;11.00;9.82;;;28.20;92.70;;;;;;6251417;28;20057;-80
2023/05/22 06:59:54;;;;;;;11.68;9.00;;;28.50;91.30;;;;;;6261610;28;20052;-82
2023/05/22 07:02:56;;;;;;;12.68;9.88;;;28.50;90.50;;;;;;6252607;28;20033;-82
2023/05/22 07:06:00;;;;;;;11.32;8.75;;;29.00;89.90;;;;;;6258557;28;20042;-80
2023/05/22 07:09:03;;;;;;;10.20;8.82;;;29.60;86.50;;;;;;6244736;28;20050;-80
2023/05/22 07:12:07;;;;;;;10.15;8.20;;;29.40;83.40;;;;;;6223447;28;20420;-80
2023/05/22 07:15:12;;;;;;;8.90;7.80;;;29.30;82.80;;;;;;6227109;28;20052;-80
2023/05/22 07:18:14;;;;;;;8.57;7.75;;;29.10;81.30;;;;;;6212240;28;20050;-79
2023/05/22 07:21:17;;;;;;;8.50;7.70;;;29.20;80.70;;;;;;6216330;28;20531;-78
2023/05/22 07:24:18;;;;;;;9.70;7.75;;;29.50;79.10;;;;;;6219724;28;20054;-80
2023/05/22 07:27:20;;;;;;;10.15;8.07;;;29.60;77.10;;;;;;6223978;28;20060;-79
2023/05/22 07:30:22;;;;;;;8.65;7.75;;;29.60;77.10;;;;;;6238361;28;20052;-79
2023/05/22 07:33:25;;;;;;;8.68;7.97;;;29.60;74.90;;;;;;6226450;28;20061;-80
2023/05/22 07:36:28;;;;;;;8.32;7.53;;;29.30;75.10;;;;;;6220785;28;20062;-79
2023/05/22 07:39:29;;;;;;;9.07;7.93;;;28.70;74.40;;;;;;6219989;28;20053;-79
2023/05/22 07:42:31;;;;;;;8.63;7.70;;;28.00;75.60;;;;;;6222468;28;20061;-79
2023/05/22 07:45:33;;;;;;;8.75;7.97;;;27.60;77.10;;;;;;6229923;28;20041;-79
2023/05/22 07:48:35;;;;;;;9.27;7.10;;;27.60;77.80;;;;;;6230269;28;20048;-79
2023/05/22 07:51:39;;;;;;;7.65;6.93;;;27.30;77.30;;;;;;6212885;28;20078;-80
2023/05/22 07:54:41;;;;;;;7.68;6.95;;;26.90;78.30;;;;;;6214228;28;20051;-80
2023/05/22 07:57:43;;;;;;;10.88;7.68;;;26.50;78.90;;;;;;6214673;28;20046;-81
2023/05/22 08:00:45;;;;;;;9.15;7.90;;;26.30;79.60;;;;;;6211601;28;20523;-80
2023/05/22 08:03:46;;;;;;;8.35;7.35;;;26.30;80.00;;;;;;6208311;28;20053;-77
2023/05/22 08:06:50;;;;;;;7.75;6.75;;;26.60;80.90;;;;;;6212846;28;20049;-79
2023/05/22 08:09:51;;;;;;;7.78;6.90;;;27.60;79.60;;;;;;6214444;28;20054;-78
2023/05/22 08:12:53;;;;;;;9.02;7.70;;;28.50;78.60;;;;;;6209581;28;20053;-78
2023/05/22 08:15:55;;;;;;;10.25;7.25;;;29.20;76.30;;;;;;6211914;28;20468;-79
2023/05/22 08:18:56;;;;;;;8.75;7.50;;;29.30;75.20;;;;;;6210026;28;20555;-78
2023/05/22 08:21:59;;;;;;;9.70;8.18;;;29.20;74.50;;;;;;6211891;28;20060;-78
2023/05/22 08:25:01;;;;;;;10.18;9.07;;;28.80;73.80;;;;;;6213449;28;20048;-78
2023/05/22 08:28:03;;;;;;;13.75;8.02;;;28.40;74.00;;;;;;6212582;28;20502;-77
2023/05/22 08:31:05;;;;;;;9.55;8.57;;;27.90;74.70;;;;;;6213212;28;20049;-78
2023/05/22 08:34:09;;;;;;;9.15;8.32;;;27.60;74.80;;;;;;6227417;28;20808;-78
2023/05/22 08:37:12;;;;;;;11.82;8.65;;;27.70;75.10;;;;;;6219933;28;20056;-80
2023/05/22 08:40:15;;;;;;;10.77;9.55;;;28.00;74.20;;;;;;6213221;28;20049;-79
2023/05/22 08:43:19;;;;;;;10.05;8.60;;;28.40;73.50;;;;;;6213156;28;20098;-78
2023/05/22 08:46:24;;;;;;;10.60;8.05;;;28.60;73.50;;;;;;6229257;28;20068;-78
2023/05/22 08:49:26;;;;;;;10.07;8.27;;;29.10;72.70;;;;;;6228148;28;20045;-79
2023/05/22 08:52:34;;;;;;;12.45;8.25;;;29.20;71.50;;;;;;6230590;28;20041;-79
2023/05/22 08:55:36;;;;;;;15.23;9.45;;;29.30;71.50;;;;;;6238725;28;20537;-79
2023/05/22 08:58:38;;;;;;;9.60;8.80;;;29.20;71.00;;;;;;6231590;28;20041;-78
2023/05/22 09:01:40;;;;;;;9.32;8.52;;;28.60;71.70;;;;;;6251315;28;20068;-78
2023/05/22 09:04:41;;;;;;;14.20;9.50;;;28.50;72.70;;;;;;6247094;28;20518;-78
2023/05/22 09:07:44;;;;;;;9.80;8.38;;;28.40;72.50;;;;;;6226397;28;20053;-77
2023/05/22 09:10:46;;;;;;;10.75;9.55;;;28.20;72.60;;;;;;6231268;28;20050;-78
2023/05/22 09:13:50;;;;;;;10.75;8.88;;;28.10;73.10;;;;;;6230449;28;20056;-78
2023/05/22 09:16:53;;;;;;;11.10;8.68;;;28.00;73.70;;;;;;6230461;28;20050;-78
2023/05/22 09:19:58;;;;;;;11.20;10.02;;;27.90;73.50;;;;;;6230562;28;20057;-78
2023/05/22 09:23:02;;;;;;;10.05;9.05;;;27.30;74.10;;;;;;6229302;28;20500;-78
2023/05/22 09:26:04;;;;;;;10.75;9.57;;;27.10;75.30;;;;;;6228581;28;20042;-78
2023/05/22 09:29:07;;;;;;;10.65;8.77;;;27.10;75.80;;;;;;6231268;28;20072;-78
2023/05/22 09:32:13;;;;;;;8.63;7.82;;;27.40;76.00;;;;;;6231177;28;20056;-78
2023/05/22 09:35:16;;;;;;;10.07;9.07;;;27.80;75.90;;;;;;6231715;28;20100;-78
2023/05/22 09:38:19;;;;;;;9.35;8.45;;;28.10;75.40;;;;;;6230869;28;20053;-78
2023/05/22 09:41:22;;;;;;;10.82;9.45;;;28.40;74.90;;;;;;6232155;28;20136;-78
2023/05/22 09:44:25;;;;;;;11.18;9.45;;;28.70;74.50;;;;;;6231973;28;20053;-78
2023/05/22 09:47:27;;;;;;;9.10;8.20;;;28.40;74.20;;;;;;6234347;28;20046;-78
2023/05/22 09:50:28;;;;;;;15.30;10.70;;;28.20;74.30;;;;;;6236932;28;20054;-78
2023/05/22 09:53:33;;;;;;;10.98;9.98;;;28.00;74.40;;;;;;6236004;28;20057;-78
2023/05/22 09:56:36;;;;;;;15.98;10.02;;;27.80;74.90;;;;;;6235279;28;20413;-78
2023/05/22 09:59:39;;;;;;;12.50;10.40;;;27.80;75.40;;;;;;6234871;28;20060;-78
2023/05/22 10:02:45;;;;;;;10.30;8.93;;;27.90;75.50;;;;;;6236229;28;20104;-78
2023/05/22 10:05:50;;;;;;;11.65;9.93;;;28.20;75.80;;;;;;6235316;28;20496;-78
2023/05/22 10:09:03;;;;;;;11.40;9.82;;;28.70;74.90;;;;;;6235496;28;20053;-78
2023/05/22 10:12:07;;;;;;;12.77;10.50;;;29.10;73.30;;;;;;6235748;28;20042;-78
2023/05/22 10:15:11;;;;;;;12.43;10.00;;;29.30;72.40;;;;;;6236983;28;20050;-78
2023/05/22 10:18:14;;;;;;;13.98;12.63;;;29.30;72.60;;;;;;6240168;28;20046;-78
2023/05/22 10:21:17;;;;;;;11.25;10.25;;;29.40;71.90;;;;;;6219068;28;20050;-78
2023/05/22 10:24:20;;;;;;;13.63;11.40;;;29.40;71.70;;;;;;6212179;28;20420;-78
2023/05/22 10:27:22;;;;;;;13.05;10.35;;;29.40;70.90;;;;;;6212593;28;20243;-78
2023/05/22 10:30:32;;;;;;;9.55;8.65;;;29.40;70.40;;;;;;6211217;28;20054;-78
2023/05/22 10:33:40;;;;;;;13.02;10.90;;;29.50;70.00;;;;;;6211013;28;20050;-78
2023/05/22 10:36:50;;;;;;;11.73;10.63;;;29.90;69.60;;;;;;6212113;28;20042;-79
2023/05/22 10:40:03;;;;;;;18.38;10.63;;;30.30;68.90;;;;;;6211747;28;20042;-78
2023/05/22 10:43:04;;;;;;;11.25;10.25;;;30.50;68.70;;;;;;6194286;28;20059;-79
2023/05/22 10:46:08;;;;;;;13.00;11.73;;;30.70;68.40;;;;;;6210666;28;20042;-77
2023/05/22 10:49:20;;;;;;;14.60;13.10;;;30.90;68.30;;;;;;6214034;28;20050;-78
2023/05/22 10:52:22;;;;;;;11.95;10.68;;;31.00;67.80;;;;;;6214679;28;20073;-78
2023/05/22 10:55:25;;;;;;;12.43;11.23;;;31.20;67.70;;;;;;6216177;28;20417;-78
2023/05/22 10:58:28;;;;;;;12.30;11.07;;;31.40;67.40;;;;;;6223818;28;20050;-78
2023/05/22 11:01:33;;;;;;;18.50;12.27;;;31.50;66.70;;;;;;6227128;28;20058;-78
2023/05/22 11:04:35;;;;;;;11.65;10.55;;;31.60;66.20;;;;;;6211596;28;20061;-78
2023/05/22 11:07:40;;;;;;;12.43;11.05;;;31.80;65.80;;;;;;6209716;28;20051;-78
2023/05/22 11:10:57;;;;;;;11.80;10.70;;;32.20;65.30;;;;;;6210467;28;20058;-78
2023/05/22 11:14:02;;;;;;;13.75;11.48;;;32.40;64.40;;;;;;6204546;28;20529;-78
2023/05/22 11:17:05;;;;;;;13.10;10.68;;;32.50;64.00;;;;;;6210740;28;20076;-78
2023/05/22 11:20:14;;;;;;;12.82;11.57;;;32.50;63.00;;;;;;6219611;28;20058;-78
2023/05/22 11:23:18;;;;;;;15.13;11.02;;;32.20;62.50;;;;;;6223506;28;20050;-78
2023/05/22 11:26:23;;;;;;;11.82;10.73;;;31.90;63.50;;;;;;6215145;28;20046;-78
2023/05/22 11:29:25;;;;;;;13.82;10.68;;;32.00;63.10;;;;;;6232406;28;20054;-78
2023/05/22 11:32:27;;;;;;;11.60;10.32;;;31.80;63.10;;;;;;6231751;28;20046;-78
2023/05/22 11:35:29;;;;;;;9.63;8.68;;;32.10;62.10;;;;;;6233579;28;20054;-79
2023/05/22 11:38:31;;;;;;;11.55;10.55;;;32.50;61.70;;;;;;6231546;28;20053;-78
2023/05/22 11:41:35;;;;;;;11.35;10.23;;;32.90;61.20;;;;;;6234566;28;20053;-78
2023/05/22 11:44:39;;;;;;;11.02;9.93;;;33.00;60.80;;;;;;6237473;28;20046;-78
2023/05/22 11:47:41;;;;;;;13.13;9.93;;;33.30;60.40;;;;;;6236600;28;20052;-81
2023/05/22 11:50:43;;;;;;;11.23;10.13;;;33.40;59.70;;;;;;6223753;28;20506;-79
2023/05/22 11:53:46;;;;;;;10.45;9.38;;;33.70;58.70;;;;;;6218707;28;20050;-80
2023/05/22 11:56:49;;;;;;;11.68;10.57;;;34.00;57.70;;;;;;6222337;28;20080;-79
2023/05/22 11:59:51;;;;;;;11.07;9.85;;;34.30;56.50;;;;;;6225533;28;20061;-81
2023/05/22 12:02:54;;;;;;;9.82;8.90;;;34.30;56.10;;;;;;6234885;28;20065;-80
2023/05/22 12:05:56;;;;;;;10.15;8.27;;;34.30;55.90;;;;;;6221470;28;20066;-79
2023/05/22 12:08:58;;;;;;;11.13;10.10;;;34.60;55.10;;;;;;6223629;28;20096;-79
2023/05/22 12:12:02;;;;;;;10.15;9.13;;;34.80;54.30;;;;;;6221614;28;20056;-79
2023/05/22 12:15:05;;;;;;;10.32;9.13;;;34.90;53.70;;;;;;6222167;28;20048;-80
2023/05/22 12:18:10;;;;;;;10.80;9.98;;;35.10;53.40;;;;;;6217590;28;20153;-80
2023/05/22 12:21:12;;;;;;;9.40;8.43;;;35.10;52.90;;;;;;6219054;28;20058;-80
2023/05/22 12:24:13;;;;;;;18.80;10.88;;;35.20;53.00;;;;;;6222039;28;20046;-79
2023/05/22 12:27:16;;;;;;;10.00;8.77;;;35.30;52.90;;;;;;6221229;28;20052;-79
2023/05/22 12:30:19;;;;;;;10.85;9.77;;;35.40;52.10;;;;;;6219386;28;21204;-79
2023/05/22 12:33:26;;;;;;;10.27;9.27;;;35.50;51.40;;;;;;6215470;28;20413;-80
2023/05/22 12:36:34;;;;;;;15.25;9.05;;;35.60;50.30;;;;;;6219360;28;20049;-80
2023/05/22 12:39:36;;;;;;;15.25;8.10;;;35.60;50.20;;;;;;6226396;28;20381;-80
2023/05/22 12:42:40;;;;;;;10.05;9.13;;;35.70;49.40;;;;;;6238595;28;20046;-80
2023/05/22 12:45:42;;;;;;;10.82;8.18;;;35.60;48.50;;;;;;6248075;28;20562;-81
2023/05/22 12:48:43;;;;;;;8.43;7.00;;;35.60;48.20;;;;;;6250002;28;20080;-79
2023/05/22 12:51:45;;;;;;;7.63;6.90;;;35.80;47.70;;;;;;6255001;28;20059;-81
2023/05/22 12:54:47;;;;;;;7.72;7.00;;;36.00;46.90;;;;;;6253817;28;20052;-80
2023/05/22 12:57:50;;;;;;;8.55;7.75;;;36.40;46.40;;;;;;6258821;28;20068;-81
2023/05/22 13:00:52;;;;;;;7.70;6.57;;;36.50;46.20;;;;;;6258621;28;20072;-80
2023/05/22 13:03:54;;;;;;;7.53;6.78;;;36.50;45.90;;;;;;6253904;28;20076;-80
2023/05/22 13:06:55;;;;;;;8.00;7.30;;;36.70;45.50;;;;;;6259954;28;20051;-81
2023/05/22 13:09:57;;;;;;;8.98;7.25;;;36.80;44.50;;;;;;6265580;28;20050;-81
2023/05/22 13:13:00;;;;;;;8.82;6.90;;;36.50;44.00;;;;;;6260429;28;20055;-81
2023/05/22 13:16:02;;;;;;;8.32;7.53;;;36.20;44.00;;;;;;6261981;28;20053;-82
2023/05/22 13:19:03;;;;;;;11.13;6.95;;;36.40;44.10;;;;;;6256652;28;20048;-80
2023/05/22 13:22:06;;;;;;;8.07;6.35;;;36.70;44.00;;;;;;6265669;28;20059;-80
2023/05/22 13:25:08;;;;;;;6.97;6.38;;;36.80;43.70;;;;;;6268172;28;20057;-79
2023/05/22 13:28:11;;;;;;;8.23;6.75;;;36.70;43.80;;;;;;6263047;28;20138;-80
2023/05/22 13:31:13;;;;;;;7.15;5.22;;;36.80;43.90;;;;;;6264257;28;20049;-79
2023/05/22 13:34:15;;;;;;;7.10;6.45;;;37.00;42.80;;;;;;6262483;28;20046;-79
2023/05/22 13:37:17;;;;;;;7.28;6.68;;;36.90;42.50;;;;;;6259981;28;20048;-79
2023/05/22 13:40:19;;;;;;;7.13;6.47;;;37.00;42.70;;;;;;6261784;28;20396;-80
2023/05/22 13:43:22;;;;;;;8.95;6.70;;;37.20;42.60;;;;;;6260300;28;20053;-79
2023/05/22 13:46:24;;;;;;;7.53;6.88;;;37.30;42.70;;;;;;6264289;28;20480;-80
2023/05/22 13:49:26;;;;;;;7.78;7.07;;;37.20;42.90;;;;;;6260464;28;20109;-80
2023/05/22 13:52:28;;;;;;;8.13;7.40;;;36.90;43.00;;;;;;6255145;28;20251;-81
2023/05/22 13:55:30;;;;;;;6.68;6.07;;;36.60;42.70;;;;;;6222969;28;20064;-83
2023/05/22 13:58:33;;;;;;;8.20;7.50;;;36.20;42.90;;;;;;6225264;28;20050;-79
2023/05/22 14:01:35;;;;;;;7.53;6.68;;;36.10;43.60;;;;;;6222806;28;20416;-80
2023/05/22 14:04:36;;;;;;;6.65;6.03;;;36.00;43.30;;;;;;6223917;28;20053;-80
2023/05/22 14:07:38;;;;;;;8.80;6.38;;;35.90;43.00;;;;;;6229451;28;20038;-79
2023/05/22 14:10:40;;;;;;;8.50;5.88;;;36.20;42.90;;;;;;6229912;28;20108;-82
2023/05/22 14:13:44;;;;;;;6.47;5.85;;;36.50;42.60;;;;;;6229488;28;20045;-79
2023/05/22 14:16:45;;;;;;;7.68;6.40;;;36.40;42.20;;;;;;6223421;28;20119;-80
2023/05/22 14:19:47;;;;;;;13.52;6.53;;;36.40;42.70;;;;;;6228823;28;20049;-79
2023/05/22 14:22:49;;;;;;;6.10;5.10;;;36.50;42.50;;;;;;6227076;28;20488;-80
2023/05/22 14:25:51;;;;;;;6.00;4.80;;;36.70;42.30;;;;;;6229080;28;20041;-80
2023/05/22 14:28:54;;;;;;;5.70;5.20;;;36.80;40.70;;;;;;6226788;28;20042;-82
2023/05/22 14:32:02;;;;;;;8.70;5.88;;;36.70;40.40;;;;;;6229832;28;20057;-80
2023/05/22 14:35:05;;;;;;;6.15;5.60;;;36.40;41.30;;;;;;6222529;28;20065;-79
2023/05/22 14:38:06;;;;;;;5.90;5.30;;;36.40;41.30;;;;;;6239270;28;20053;-81
2023/05/22 14:41:09;;;;;;;7.43;4.70;;;36.50;40.60;;;;;;6243219;28;20497;-80
2023/05/22 14:44:12;;;;;;;5.47;4.93;;;36.40;39.90;;;;;;6263725;28;20055;-81
2023/05/22 14:47:14;;;;;;;8.50;5.22;;;36.40;39.70;;;;;;6241443;28;20053;-79
2023/05/22 14:50:16;;;;;;;5.22;4.78;;;36.20;40.00;;;;;;6264626;28;20049;-81
2023/05/22 14:53:17;;;;;;;7.07;5.75;;;36.20;40.10;;;;;;6248177;28;20050;-79
2023/05/22 14:56:20;;;;;;;6.53;5.93;;;36.40;40.40;;;;;;6222624;28;20042;-80
2023/05/22 14:59:23;;;;;;;9.20;5.60;;;36.40;40.50;;;;;;6221593;28;20141;-79
2023/05/22 15:02:25;;;;;;;6.13;5.63;;;36.30;40.60;;;;;;6239309;28;20050;-82
2023/05/22 15:05:26;;;;;;;5.65;5.15;;;35.90;40.70;;;;;;6229631;28;20049;-80
2023/05/22 15:08:28;;;;;;;7.50;6.05;;;35.70;41.00;;;;;;6267611;28;20049;-81
2023/05/22 15:11:30;;;;;;;6.25;5.35;;;35.40;41.30;;;;;;6264339;28;20064;-81
2023/05/22 15:14:33;;;;;;;8.23;6.10;;;35.10;41.40;;;;;;6241590;28;20050;-80
2023/05/22 15:17:35;;;;;;;6.60;5.75;;;35.10;41.80;;;;;;6239479;28;20105;-80
2023/05/22 15:20:36;;;;;;;8.57;6.07;;;34.90;42.00;;;;;;6226813;28;20161;-81
2023/05/22 15:23:38;;;;;;;6.30;5.25;;;34.90;41.90;;;;;;6225710;28;20153;-81
2023/05/22 15:26:40;;;;;;;10.10;7.28;;;34.60;42.10;;;;;;6226064;28;20050;-80
2023/05/22 15:29:43;;;;;;;8.73;6.00;;;34.40;42.40;;;;;;6222098;28;20061;-82
2023/05/22 15:32:45;;;;;;;7.32;5.25;;;34.00;42.70;;;;;;6221877;28;20041;-80
2023/05/22 15:35:47;;;;;;;10.93;6.18;;;33.60;43.20;;;;;;6221956;28;20042;-82